Time;durP1;ratioP1;P1;durP2;ratioP2;P2;SDS_P1;SDS_P2;PMS_P1;PMS_P2;Temp;Humidity;BMP_temperature;BMP_pressure;BME280_temperature;BME280_humidity;BME280_pressure;Samples;Min_cycle;Max_cycle;Signal;HPM_P1;HPM_P2
2021/03/16 00:00:08;;;;;;;7.43;2.60;;;;;;;8.81;77.98;101713.25;5052678;28;20446;-84
2021/03/16 00:02:33;;;;;;;10.70;2.58;;;;;;;8.74;79.94;101710.88;5052169;28;20464;-83
2021/03/16 00:04:59;;;;;;;9.50;3.15;;;;;;;8.70;80.33;101706.66;5050792;28;20036;-83
2021/03/16 00:07:25;;;;;;;10.50;2.78;;;;;;;8.69;79.91;101704.97;5041197;28;20391;-84
2021/03/16 00:09:50;;;;;;;6.10;2.30;;;;;;;9.00;78.41;101716.81;5050220;28;20020;-84
2021/03/16 00:12:16;;;;;;;11.45;2.60;;;;;;;9.02;77.91;101712.38;5052624;28;20538;-84
2021/03/16 00:14:44;;;;;;;8.48;2.58;;;;;;;9.09;77.47;101710.38;5052512;28;20032;-83
2021/03/16 00:17:09;;;;;;;9.88;2.50;;;;;;;9.12;77.64;101713.72;5052333;28;20116;-84
2021/03/16 00:19:35;;;;;;;11.90;3.58;;;;;;;9.27;77.31;101719.25;5052579;28;20429;-84
2021/03/16 00:22:01;;;;;;;8.38;2.30;;;;;;;9.36;77.61;101724.13;5052383;28;20024;-84
2021/03/16 00:24:27;;;;;;;11.55;3.03;;;;;;;9.41;77.74;101724.75;5034315;28;20036;-84
2021/03/16 00:26:52;;;;;;;8.95;2.72;;;;;;;9.50;77.03;101720.91;5032327;28;20022;-84
2021/03/16 00:29:18;;;;;;;9.57;4.32;;;;;;;9.52;76.57;101719.09;5032364;28;20059;-84
2021/03/16 00:31:43;;;;;;;11.80;2.58;;;;;;;9.32;77.44;101714.66;5032219;28;20021;-84
2021/03/16 00:34:09;;;;;;;8.10;2.28;;;;;;;9.16;78.00;101710.97;5032396;28;20068;-85
2021/03/16 00:36:34;;;;;;;9.38;2.70;;;;;;;9.06;77.65;101708.75;5032146;28;20021;-84
2021/03/16 00:38:59;;;;;;;11.80;3.50;;;;;;;8.94;78.74;101703.97;5046703;28;20421;-84
2021/03/16 00:41:25;;;;;;;8.73;2.80;;;;;;;8.87;79.49;101713.03;5052208;28;20430;-84
2021/03/16 00:43:52;;;;;;;8.40;2.42;;;;;;;8.86;78.76;101703.44;5052058;28;20036;-84
2021/03/16 00:46:17;;;;;;;10.73;3.97;;;;;;;8.74;79.05;101702.16;5050154;28;20360;-84
2021/03/16 00:48:43;;;;;;;8.60;3.10;;;;;;;8.83;79.30;101704.41;5049610;28;20028;-84
2021/03/16 00:51:08;;;;;;;9.52;2.63;;;;;;;8.89;79.20;101706.78;5046987;28;20076;-83
2021/03/16 00:53:34;;;;;;;7.82;2.75;;;;;;;8.69;79.24;101704.97;5030587;28;20026;-84
2021/03/16 00:55:59;;;;;;;8.88;2.90;;;;;;;8.81;78.96;101716.72;5033250;28;20482;-83
2021/03/16 00:58:26;;;;;;;9.85;2.92;;;;;;;8.53;79.76;101717.81;5032122;28;20530;-84
2021/03/16 01:00:52;;;;;;;6.80;3.22;;;;;;;8.16;86.21;101733.16;5031993;28;20021;-83
2021/03/16 01:03:17;;;;;;;14.35;3.20;;;;;;;8.60;85.17;101725.41;5032174;28;20076;-83
2021/03/16 01:05:42;;;;;;;11.65;3.55;;;;;;;8.72;84.92;101723.16;5032300;28;20448;-85
2021/03/16 01:08:08;;;;;;;10.20;3.88;;;;;;;9.08;84.02;101730.50;5032264;28;20033;-85
2021/03/16 01:10:33;;;;;;;5.47;2.88;;;;;;;9.20;83.50;101723.03;5064802;28;20023;-84
2021/03/16 01:12:58;;;;;;;4.80;2.85;;;;;;;9.00;83.68;101714.22;5067927;28;20017;-85
2021/03/16 01:15:24;;;;;;;7.78;3.13;;;;;;;9.20;82.70;101721.28;5074204;22;20029;-84
2021/03/16 01:17:49;;;;;;;9.55;3.35;;;;;;;9.22;83.37;101715.94;5081189;28;20025;-84
2021/03/16 01:20:19;;;;;;;9.20;2.75;;;;;;;9.39;83.10;101708.25;5080896;28;20009;-83
2021/03/16 01:22:45;;;;;;;10.00;3.20;;;;;;;9.35;82.78;101713.69;5077187;28;20086;-84
2021/03/16 01:25:11;;;;;;;9.75;3.08;;;;;;;9.40;82.61;101714.31;5074659;28;20490;-85
2021/03/16 01:27:36;;;;;;;8.10;2.70;;;;;;;9.33;82.56;101714.59;5068056;28;20064;-84
2021/03/16 01:30:03;;;;;;;9.35;3.03;;;;;;;9.33;82.52;101719.00;5062492;28;20028;-84
2021/03/16 01:32:28;;;;;;;7.25;2.92;;;;;;;9.33;82.29;101721.59;5080439;28;20053;-85
2021/03/16 01:34:53;;;;;;;6.32;2.50;;;;;;;9.19;83.20;101723.97;5080482;28;20024;-84
2021/03/16 01:37:19;;;;;;;5.38;2.70;;;;;;;9.18;83.12;101725.69;5079101;28;20037;-85
2021/03/16 01:39:45;;;;;;;9.23;3.42;;;;;;;9.12;83.54;101732.06;5073672;28;20031;-84
2021/03/16 01:42:11;;;;;;;4.93;2.10;;;;;;;9.12;83.48;101732.06;5080086;28;20017;-85
2021/03/16 01:44:36;;;;;;;11.27;3.35;;;;;;;9.21;83.09;101719.50;5079331;28;20033;-86
2021/03/16 01:47:03;;;;;;;11.57;3.67;;;;;;;9.15;84.89;101714.53;5059535;28;20070;-85
2021/03/16 01:49:28;;;;;;;7.18;3.03;;;;;;;9.12;87.06;101720.72;5046054;28;20396;-85
2021/03/16 01:51:53;;;;;;;12.68;3.28;;;;;;;9.27;85.87;101725.34;5035357;28;20028;-84
2021/03/16 01:54:19;;;;;;;6.30;2.92;;;;;;;9.21;86.08;101715.09;5034129;28;20547;-84
2021/03/16 01:56:47;;;;;;;10.98;3.05;;;;;;;9.25;85.95;101715.84;5035161;28;20033;-84
2021/03/16 01:59:17;;;;;;;12.20;2.63;;;;;;;9.31;85.20;101719.03;5035271;28;20030;-84
2021/03/16 02:01:43;;;;;;;8.63;2.58;;;;;;;9.21;84.77;101707.25;5054686;28;20040;-84
2021/03/16 02:04:09;;;;;;;9.02;3.00;;;;;;;9.21;84.87;101709.88;5054960;28;20033;-84
2021/03/16 02:06:43;;;;;;;8.45;3.00;;;;;;;9.24;84.95;101712.38;5054796;28;20025;-84
2021/03/16 02:09:24;;;;;;;5.40;2.45;;;;;;;9.24;85.40;101709.75;5055381;28;20021;-84
2021/03/16 02:12:11;;;;;;;7.05;2.33;;;;;;;9.06;86.33;101729.72;5044468;28;20029;-84
2021/03/16 02:14:44;;;;;;;6.82;2.30;;;;;;;9.17;86.04;101718.78;5038202;28;20045;-84
2021/03/16 02:17:20;;;;;;;8.98;2.70;;;;;;;9.04;86.33;101713.16;5033966;28;20022;-84
2021/03/16 02:20:06;;;;;;;7.80;2.40;;;;;;;8.87;87.44;101713.88;5034768;28;20100;-84
2021/03/16 02:22:33;;;;;;;8.32;2.40;;;;;;;8.93;87.85;101711.00;5034788;28;20029;-84
2021/03/16 02:25:35;;;;;;;6.90;2.45;;;;;;;9.06;88.00;101698.28;5034154;28;20021;-84
2021/03/16 02:28:10;;;;;;;4.38;2.15;;;;;;;9.10;87.51;101705.09;5038928;28;20025;-84
2021/03/16 02:30:40;;;;;;;5.78;2.10;;;;;;;9.06;88.55;101694.78;5053186;28;20067;-82
2021/03/16 02:33:09;;;;;;;5.07;2.33;;;;;;;9.16;89.10;101690.84;5054290;28;20049;-82
2021/03/16 02:35:36;;;;;;;10.50;2.95;;;;;;;9.15;89.32;101689.16;5053079;28;20064;-83
2021/03/16 02:38:04;;;;;;;10.95;3.75;;;;;;;9.38;88.44;101684.72;5054334;28;20017;-83
2021/03/16 02:40:31;;;;;;;8.20;2.83;;;;;;;9.34;88.93;101678.78;5047117;28;20033;-83
2021/03/16 02:42:57;;;;;;;8.48;3.17;;;;;;;9.26;89.55;101680.84;5032776;28;20021;-83
2021/03/16 02:45:22;;;;;;;9.38;3.55;;;;;;;9.25;89.73;101684.38;5034325;28;20375;-83
2021/03/16 02:47:49;;;;;;;6.20;2.80;;;;;;;9.24;90.49;101683.53;5034390;28;20032;-83
2021/03/16 02:50:16;;;;;;;13.38;3.17;;;;;;;9.17;90.96;101686.47;5034212;28;20412;-83
2021/03/16 02:52:42;;;;;;;8.90;3.17;;;;;;;8.99;92.61;101688.09;5032534;28;20492;-82
2021/03/16 02:55:09;;;;;;;9.25;3.08;;;;;;;9.15;91.74;101673.44;5034061;28;20034;-83
2021/03/16 02:57:37;;;;;;;12.60;3.45;;;;;;;9.12;93.12;101674.44;5042159;28;20461;-83
2021/03/16 03:00:05;;;;;;;10.25;3.33;;;;;;;9.29;93.38;101671.09;5053682;28;20425;-83
2021/03/16 03:02:32;;;;;;;10.25;3.13;;;;;;;9.22;94.29;101676.66;5055257;28;20383;-82
2021/03/16 03:04:59;;;;;;;10.82;3.00;;;;;;;9.46;95.34;101672.16;5055766;28;20607;-83
2021/03/16 03:07:24;;;;;;;9.98;3.67;;;;;;;9.34;97.23;101670.91;5054054;28;20123;-83
2021/03/16 03:09:50;;;;;;;13.23;4.38;;;;;;;9.19;100.00;101676.78;5052225;28;20108;-83
2021/03/16 03:12:16;;;;;;;15.77;5.22;;;;;;;9.33;100.00;101677.91;5041789;28;20047;-83
2021/03/16 03:14:41;;;;;;;17.02;5.72;;;;;;;9.58;100.00;101681.22;5036886;28;20033;-83
2021/03/16 03:17:08;;;;;;;12.65;4.95;;;;;;;9.55;100.00;101684.00;5033930;28;20037;-83
2021/03/16 03:19:34;;;;;;;9.35;4.68;;;;;;;9.53;100.00;101684.06;5033715;28;20071;-83
2021/03/16 03:22:14;;;;;;;17.90;6.22;;;;;;;9.53;100.00;101691.94;5033630;28;20108;-82
2021/03/16 03:24:46;;;;;;;14.63;5.38;;;;;;;9.59;100.00;101688.19;5033332;28;20041;-82
2021/03/16 03:27:18;;;;;;;;;;;;;;;9.75;100.00;101683.97;5033836;28;20109;-84
2021/03/16 03:29:45;;;;;;;17.25;5.60;;;;;;;9.84;100.00;101675.69;5051642;28;19916;-84
2021/03/16 03:32:12;;;;;;;13.35;5.18;;;;;;;10.13;99.47;101673.56;5051927;28;20033;-85
2021/03/16 03:34:39;;;;;;;15.05;5.57;;;;;;;10.13;99.44;101668.31;5053303;28;20021;-84
2021/03/16 03:37:06;;;;;;;12.95;4.88;;;;;;;10.35;97.05;101659.44;5052251;28;20479;-85
2021/03/16 03:39:33;;;;;;;16.88;6.78;;;;;;;9.87;100.00;101672.97;5060673;28;20034;-85
2021/03/16 03:41:59;;;;;;;21.27;6.97;;;;;;;9.87;100.00;101664.22;5058213;28;20089;-84
2021/03/16 03:44:28;;;;;;;18.33;6.78;;;;;;;9.90;100.00;101662.31;5052140;28;20044;-84
2021/03/16 03:46:54;;;;;;;16.92;5.70;;;;;;;10.10;99.89;101661.41;5033094;28;20069;-84
2021/03/16 03:49:21;;;;;;;14.15;5.97;;;;;;;10.14;100.00;101667.38;5033060;28;20064;-84
2021/03/16 03:51:49;;;;;;;18.65;7.18;;;;;;;10.28;99.13;101662.31;5032903;28;20053;-84
2021/03/16 03:54:16;;;;;;;22.20;8.40;;;;;;;10.16;99.58;101668.16;5032964;28;20033;-84
2021/03/16 03:56:42;;;;;;;22.55;8.30;;;;;;;10.12;99.88;101666.59;5049512;28;20467;-84
2021/03/16 03:59:07;;;;;;;23.15;8.90;;;;;;;10.10;100.00;101673.69;5052702;28;20021;-84
2021/03/16 04:01:34;;;;;;;16.80;8.82;;;;;;;10.17;100.00;101679.47;5052774;28;20021;-84
2021/03/16 04:04:01;;;;;;;25.75;10.10;;;;;;;10.03;100.00;101673.13;5052691;28;20044;-84
2021/03/16 04:06:28;;;;;;;28.23;9.50;;;;;;;10.24;100.00;101676.50;5052515;28;20032;-83
2021/03/16 04:08:54;;;;;;;17.08;8.13;;;;;;;10.23;100.00;101672.19;5052866;28;20365;-84
2021/03/16 04:11:22;;;;;;;21.83;8.88;;;;;;;10.34;100.00;101673.50;5034583;28;20033;-84
2021/03/16 04:13:48;;;;;;;18.88;8.02;;;;;;;10.32;100.00;101677.03;5044668;28;20036;-85
2021/03/16 04:16:16;;;;;;;17.10;8.60;;;;;;;10.22;100.00;101680.13;5052764;28;20094;-85
2021/03/16 04:18:42;;;;;;;26.95;10.23;;;;;;;10.25;100.00;101678.22;5052355;28;20025;-84
2021/03/16 04:21:07;;;;;;;19.00;8.73;;;;;;;10.29;100.00;101686.81;5052529;28;20549;-84
2021/03/16 04:23:33;;;;;;;22.45;8.55;;;;;;;10.54;100.00;101672.56;5052253;28;20023;-84
2021/03/16 04:25:59;;;;;;;17.35;7.43;;;;;;;10.42;100.00;101669.56;5052394;28;20021;-84
2021/03/16 04:28:25;;;;;;;20.42;8.10;;;;;;;10.22;100.00;101665.22;5040955;28;20060;-85
2021/03/16 04:30:52;;;;;;;20.20;8.02;;;;;;;10.28;100.00;101653.59;5042824;28;20033;-85
2021/03/16 04:33:18;;;;;;;19.35;8.00;;;;;;;10.16;100.00;101656.81;5032167;28;20373;-84
2021/03/16 04:35:43;;;;;;;17.88;6.88;;;;;;;10.24;100.00;101650.25;5032409;28;20026;-85
2021/03/16 04:38:08;;;;;;;21.65;8.60;;;;;;;10.45;100.00;101658.94;5032332;28;20108;-85
2021/03/16 04:40:34;;;;;;;19.20;7.57;;;;;;;10.37;100.00;101653.22;5032116;28;20365;-85
2021/03/16 04:42:59;;;;;;;22.52;8.27;;;;;;;9.99;100.00;101657.56;5032330;28;20041;-85
2021/03/16 04:45:25;;;;;;;16.63;8.25;;;;;;;9.96;100.00;101655.09;5036383;28;20424;-85
2021/03/16 04:47:50;;;;;;;20.50;9.65;;;;;;;10.09;100.00;101648.34;5051973;28;20021;-85
2021/03/16 04:50:15;;;;;;;18.45;8.52;;;;;;;10.32;100.00;101657.81;5052053;28;20031;-85
2021/03/16 04:52:41;;;;;;;13.50;7.68;;;;;;;10.15;100.00;101661.22;5052291;28;20048;-85
2021/03/16 04:55:07;;;;;;;19.63;9.52;;;;;;;10.23;100.00;101658.19;5052154;28;20060;-85
2021/03/16 04:57:32;;;;;;;21.30;9.52;;;;;;;10.50;100.00;101666.59;5050842;28;20021;-84
2021/03/16 04:59:57;;;;;;;16.48;10.18;;;;;;;10.59;100.00;101660.91;5040831;28;20104;-85
2021/03/16 05:02:23;;;;;;;22.02;9.88;;;;;;;10.23;100.00;101672.19;5050923;28;20036;-85
2021/03/16 05:04:48;;;;;;;22.73;10.23;;;;;;;10.20;100.00;101653.94;5052015;28;20402;-85
2021/03/16 05:07:14;;;;;;;17.77;11.00;;;;;;;10.66;100.00;101650.94;5051989;28;20033;-85
2021/03/16 05:09:39;;;;;;;16.33;11.25;;;;;;;10.67;100.00;101643.00;5042880;28;20262;-85
2021/03/16 05:12:06;;;;;;;18.55;10.43;;;;;;;10.98;100.00;101649.38;5031981;28;20029;-85
2021/03/16 05:14:31;;;;;;;15.32;10.25;;;;;;;11.14;100.00;101648.59;5031682;28;20030;-85
2021/03/16 05:16:56;;;;;;;16.63;9.68;;;;;;;10.76;100.00;101653.97;5032423;28;20036;-85
2021/03/16 05:19:22;;;;;;;16.20;10.35;;;;;;;10.75;100.00;101654.94;5031795;28;20036;-85
2021/03/16 05:21:47;;;;;;;24.83;14.00;;;;;;;10.53;100.00;101650.72;5031919;28;20464;-85
2021/03/16 05:24:13;;;;;;;20.38;10.73;;;;;;;10.81;100.00;101649.38;5040347;28;20032;-85
2021/03/16 05:26:38;;;;;;;13.48;8.98;;;;;;;11.31;100.00;101638.06;5051654;28;20139;-85
2021/03/16 05:29:03;;;;;;;18.05;10.25;;;;;;;11.18;100.00;101626.50;5051672;28;20021;-86
2021/03/16 05:31:29;;;;;;;17.05;10.75;;;;;;;11.22;100.00;101630.69;5051678;28;20100;-86
2021/03/16 05:33:54;;;;;;;14.70;10.15;;;;;;;11.32;100.00;101630.13;5051616;28;20029;-85
2021/03/16 05:36:20;;;;;;;17.80;11.40;;;;;;;11.31;100.00;101624.94;5051666;28;20399;-85
2021/03/16 05:38:45;;;;;;;19.33;12.43;;;;;;;11.21;100.00;101615.81;5051129;28;20036;-85
2021/03/16 05:41:11;;;;;;;19.50;12.68;;;;;;;11.28;100.00;101625.94;5049746;28;20100;-85
2021/03/16 05:43:36;;;;;;;17.75;11.90;;;;;;;11.25;100.00;101620.84;5031751;28;20611;-86
2021/03/16 05:46:02;;;;;;;21.58;13.13;;;;;;;11.16;100.00;101628.34;5031582;28;20030;-86
2021/03/16 05:48:29;;;;;;;19.58;12.68;;;;;;;11.32;100.00;101632.75;5030708;28;20458;-86
2021/03/16 05:50:58;;;;;;;20.50;13.50;;;;;;;11.29;100.00;101632.06;5038975;28;20108;-86
2021/03/16 05:53:24;;;;;;;20.60;12.40;;;;;;;11.09;100.00;101633.06;5051841;28;20065;-86
2021/03/16 05:55:49;;;;;;;19.92;11.73;;;;;;;11.19;100.00;101633.47;5048493;28;20117;-86
2021/03/16 05:58:15;;;;;;;16.52;11.05;;;;;;;11.32;100.00;101655.56;5051441;28;20472;-86
2021/03/16 06:00:40;;;;;;;23.92;13.68;;;;;;;10.98;100.00;101643.25;5045273;28;20031;-86
2021/03/16 06:03:06;;;;;;;24.65;13.80;;;;;;;11.23;100.00;101656.03;5033682;28;20026;-86
2021/03/16 06:05:32;;;;;;;20.88;12.05;;;;;;;11.01;100.00;101667.63;5058362;28;20433;-86
2021/03/16 06:07:57;;;;;;;22.27;12.05;;;;;;;11.11;100.00;101668.84;5060119;28;20028;-86
2021/03/16 06:10:23;;;;;;;20.90;11.20;;;;;;;11.14;100.00;101667.88;5053527;28;20060;-85
2021/03/16 06:12:49;;;;;;;20.65;10.77;;;;;;;11.21;100.00;101668.41;5054105;28;20467;-86
2021/03/16 06:15:21;;;;;;;21.73;10.80;;;;;;;11.44;100.00;101675.13;5059983;28;20095;-86
2021/03/16 06:17:49;;;;;;;19.95;10.82;;;;;;;11.27;100.00;101678.59;5072470;28;20055;-85
2021/03/16 06:20:32;;;;;;;20.65;11.73;;;;;;;11.31;100.00;101678.41;5074820;28;20052;-85
2021/03/16 06:23:02;;;;;;;21.52;10.90;;;;;;;11.26;100.00;101677.75;5038853;28;20056;-85
2021/03/16 06:25:32;;;;;;;24.88;11.68;;;;;;;11.23;100.00;101674.44;5055064;28;20021;-85
2021/03/16 06:28:03;;;;;;;21.13;11.27;;;;;;;11.29;100.00;101677.63;5053116;28;20067;-85
2021/03/16 06:30:29;;;;;;;19.90;10.68;;;;;;;11.15;100.00;101666.94;5054047;28;20039;-85
2021/03/16 06:32:54;;;;;;;17.95;11.25;;;;;;;11.04;100.00;101656.97;5054276;28;20029;-85
2021/03/16 06:35:20;;;;;;;20.77;11.60;;;;;;;10.88;100.00;101669.13;5056648;28;20548;-85
2021/03/16 06:38:06;;;;;;;24.95;12.90;;;;;;;11.07;100.00;101662.06;5051595;28;20033;-85
2021/03/16 06:40:33;;;;;;;24.98;12.40;;;;;;;11.00;100.00;101665.94;5043646;28;20025;-85
2021/03/16 06:43:11;;;;;;;25.42;12.95;;;;;;;10.48;100.00;101652.69;5048481;28;20116;-85
2021/03/16 06:45:39;;;;;;;25.52;13.13;;;;;;;10.49;100.00;101662.28;5052649;28;20033;-85
2021/03/16 06:48:18;;;;;;;28.25;14.20;;;;;;;10.79;100.00;101677.50;5054160;28;20429;-85
2021/03/16 06:50:44;;;;;;;29.83;14.27;;;;;;;10.39;100.00;101679.41;5033837;28;20395;-85
2021/03/16 06:53:19;;;;;;;30.88;15.75;;;;;;;10.53;100.00;101674.34;5045749;28;20221;-85
2021/03/16 06:55:58;;;;;;;27.95;14.70;;;;;;;10.88;100.00;101674.41;5067279;28;20031;-85
2021/03/16 06:58:31;;;;;;;31.23;15.30;;;;;;;10.79;100.00;101677.50;5067340;28;20017;-85
2021/03/16 07:01:09;;;;;;;31.33;15.27;;;;;;;11.03;100.00;101671.03;5055396;28;20036;-84
2021/03/16 07:03:36;;;;;;;32.22;14.50;;;;;;;11.01;100.00;101683.38;5057609;28;20029;-85
2021/03/16 07:06:09;;;;;;;36.88;15.27;;;;;;;10.83;100.00;101684.28;5053466;28;20021;-85
2021/03/16 07:08:34;;;;;;;32.03;15.70;;;;;;;10.96;100.00;101684.53;5053524;28;20506;-85
2021/03/16 07:11:05;;;;;;;34.47;17.63;;;;;;;10.96;100.00;101684.53;5053025;28;20033;-85
2021/03/16 07:13:32;;;;;;;33.00;16.25;;;;;;;10.99;100.00;101681.78;5053182;28;20106;-86
2021/03/16 07:15:58;;;;;;;31.98;16.38;;;;;;;10.92;100.00;101678.59;5069339;28;20040;-86
2021/03/16 07:18:23;;;;;;;33.25;17.38;;;;;;;11.15;100.00;101673.97;5060423;28;20029;-86
2021/03/16 07:20:50;;;;;;;36.50;18.55;;;;;;;10.85;100.00;101677.19;5052839;28;20025;-84
2021/03/16 07:23:17;;;;;;;39.15;19.05;;;;;;;10.95;100.00;101683.69;5051927;28;20033;-85
2021/03/16 07:25:42;;;;;;;38.88;19.05;;;;;;;10.87;100.00;101681.44;5057943;28;20025;-83
2021/03/16 07:28:08;;;;;;;40.50;19.13;;;;;;;10.92;100.00;101689.13;5052930;28;20368;-84
2021/03/16 07:30:35;;;;;;;37.65;18.73;;;;;;;11.31;100.00;101681.03;5054980;28;20029;-84
2021/03/16 07:33:02;;;;;;;37.55;18.52;;;;;;;11.50;100.00;101675.66;5049079;28;20099;-84
2021/03/16 07:35:28;;;;;;;35.42;17.55;;;;;;;11.38;100.00;101692.06;5039010;28;20521;-84
2021/03/16 07:37:54;;;;;;;36.72;18.70;;;;;;;11.32;100.00;101703.75;5048936;28;20021;-85
2021/03/16 07:40:20;;;;;;;35.63;17.58;;;;;;;11.68;100.00;101701.94;5041845;28;20033;-84
2021/03/16 07:42:48;;;;;;;34.35;19.02;;;;;;;11.87;100.00;101713.22;5052848;28;20117;-85
2021/03/16 07:45:25;;;;;;;31.95;17.48;;;;;;;11.89;100.00;101698.22;5051716;28;20025;-84
2021/03/16 07:47:51;;;;;;;31.77;17.75;;;;;;;11.89;100.00;101708.75;5052167;28;20040;-84
2021/03/16 07:50:25;;;;;;;30.85;17.83;;;;;;;11.85;100.00;101716.88;5052713;28;20116;-85
2021/03/16 07:52:51;;;;;;;31.23;18.02;;;;;;;11.93;100.00;101704.19;5050585;28;20025;-85
2021/03/16 07:55:29;;;;;;;28.42;16.50;;;;;;;12.16;100.00;101710.00;5052321;28;20171;-85
2021/03/16 07:58:12;;;;;;;28.05;15.90;;;;;;;11.92;100.00;101718.25;5050093;28;20098;-85
2021/03/16 08:00:38;;;;;;;28.88;15.35;;;;;;;11.88;100.00;101711.44;5053780;28;20544;-84
2021/03/16 08:03:06;;;;;;;26.30;15.45;;;;;;;11.63;100.00;101722.38;5055494;28;20041;-84
2021/03/16 08:05:41;;;;;;;30.13;16.35;;;;;;;11.65;100.00;101724.00;5049806;28;20029;-85
2021/03/16 08:08:18;;;;;;;32.25;16.20;;;;;;;11.90;100.00;101728.84;5049530;28;20029;-85
2021/03/16 08:10:44;;;;;;;27.27;15.02;;;;;;;11.97;100.00;101729.41;5056510;28;20052;-85
2021/03/16 08:13:18;;;;;;;30.25;16.52;;;;;;;12.06;100.00;101717.53;5051568;28;20033;-86
2021/03/16 08:15:48;;;;;;;26.67;15.15;;;;;;;11.83;100.00;101724.00;5051393;28;20029;-86
2021/03/16 08:18:26;;;;;;;29.58;16.52;;;;;;;11.70;100.00;101729.03;5051276;28;20071;-86
2021/03/16 08:21:05;;;;;;;28.17;15.43;;;;;;;11.89;100.00;101737.69;5054488;28;20040;-86
2021/03/16 08:23:32;;;;;;;25.13;14.57;;;;;;;12.05;100.00;101721.09;5053906;28;20036;-85
2021/03/16 08:26:00;;;;;;;30.02;16.33;;;;;;;11.63;100.00;101733.75;5052472;28;20051;-85
2021/03/16 08:28:26;;;;;;;28.45;15.80;;;;;;;11.77;100.00;101740.06;5051848;28;20036;-85
2021/03/16 08:30:53;;;;;;;37.35;18.15;;;;;;;11.63;100.00;101744.28;5052718;28;20044;-85
2021/03/16 08:33:19;;;;;;;31.80;16.25;;;;;;;11.82;100.00;101749.44;5053860;28;20036;-85
2021/03/16 08:35:53;;;;;;;30.33;17.02;;;;;;;11.81;100.00;101750.38;5052885;28;20490;-86
2021/03/16 08:38:24;;;;;;;28.35;15.35;;;;;;;11.78;100.00;101749.69;5065514;28;20085;-83
2021/03/16 08:41:02;;;;;;;29.42;16.02;;;;;;;11.79;100.00;101759.25;5075111;28;20403;-83
2021/03/16 08:43:27;;;;;;;29.23;16.58;;;;;;;11.76;100.00;101762.06;5065704;28;20036;-86
2021/03/16 08:45:52;;;;;;;26.77;17.13;;;;;;;12.05;100.00;101755.31;5051514;28;20059;-86
2021/03/16 08:48:29;;;;;;;33.40;16.95;;;;;;;11.84;100.00;101758.09;5056029;28;20056;-86
2021/03/16 08:50:55;;;;;;;36.53;17.40;;;;;;;11.96;100.00;101756.66;5048464;28;20029;-85
2021/03/16 08:53:20;;;;;;;33.10;17.40;;;;;;;11.92;100.00;101756.91;5049733;28;20517;-86
2021/03/16 08:55:50;;;;;;;30.55;16.45;;;;;;;12.09;100.00;101762.97;5061401;28;20399;-87
2021/03/16 08:58:17;;;;;;;31.55;17.00;;;;;;;12.37;100.00;101763.28;5052447;28;20070;-86
2021/03/16 09:00:43;;;;;;;26.55;16.17;;;;;;;12.38;100.00;101770.25;5051694;28;20024;-87
2021/03/16 09:03:09;;;;;;;28.45;15.57;;;;;;;12.18;100.00;101764.25;5051730;28;20037;-87
2021/03/16 09:05:35;;;;;;;28.63;14.88;;;;;;;12.03;100.00;101757.19;5053927;28;20025;-86
2021/03/16 09:08:01;;;;;;;22.85;13.75;;;;;;;12.05;100.00;101742.16;5063343;28;20048;-87
2021/03/16 09:10:28;;;;;;;22.85;13.23;;;;;;;12.22;100.00;101747.41;5052405;28;20402;-87
2021/03/16 09:12:54;;;;;;;25.75;14.73;;;;;;;12.42;100.00;101763.88;5063730;28;20036;-87
2021/03/16 09:15:30;;;;;;;27.38;13.13;;;;;;;12.33;100.00;101759.13;5066336;28;20028;-88
2021/03/16 09:18:04;;;;;;;26.63;13.80;;;;;;;12.56;100.00;101750.84;5051992;28;20029;-87
2021/03/16 09:20:34;;;;;;;22.55;12.90;;;;;;;12.59;100.00;101745.38;5052039;28;20471;-86
2021/03/16 09:23:04;;;;;;;26.58;15.23;;;;;;;12.52;100.00;101744.03;5042399;28;20031;-87
2021/03/16 09:25:33;;;;;;;30.48;14.52;;;;;;;12.44;100.00;101748.84;5066906;28;20028;-87
2021/03/16 09:28:01;;;;;;;28.55;15.00;;;;;;;12.60;100.00;101741.81;5052737;28;20090;-87
2021/03/16 09:30:44;;;;;;;25.38;15.07;;;;;;;12.86;100.00;101747.44;5051408;28;20029;-86
2021/03/16 09:33:11;;;;;;;27.42;15.50;;;;;;;12.93;100.00;101767.22;5050693;28;20029;-86
2021/03/16 09:35:37;;;;;;;28.48;17.25;;;;;;;12.67;100.00;101764.25;5065355;28;20033;-86
2021/03/16 09:38:07;;;;;;;24.45;16.40;;;;;;;12.60;100.00;101759.38;5045433;28;20033;-86
2021/03/16 09:40:42;;;;;;;26.35;17.02;;;;;;;12.50;100.00;101773.09;5058131;28;20541;-86
2021/03/16 09:43:22;;;;;;;27.45;17.02;;;;;;;13.00;100.00;101771.22;5056293;28;20029;-88
2021/03/16 09:45:58;;;;;;;26.65;17.70;;;;;;;13.13;100.00;101784.56;5075270;28;20471;-88
2021/03/16 09:48:24;;;;;;;24.40;16.73;;;;;;;13.01;100.00;101779.97;5088035;28;20033;-88
2021/03/16 09:50:50;;;;;;;27.92;17.10;;;;;;;13.08;99.88;101790.09;5080518;28;20037;-87
2021/03/16 09:53:19;;;;;;;30.45;18.00;;;;;;;13.43;98.67;101789.06;5079566;28;20047;-87
2021/03/16 09:55:48;;;;;;;25.25;17.33;;;;;;;13.61;95.42;101793.25;5096834;28;20029;-87
2021/03/16 09:58:22;;;;;;;23.73;17.02;;;;;;;13.45;97.54;101793.31;5078745;28;20009;-86
2021/03/16 10:00:49;;;;;;;22.92;16.33;;;;;;;13.46;98.07;101794.13;5071578;28;20021;-87
2021/03/16 10:03:17;;;;;;;23.05;15.73;;;;;;;13.83;95.60;101774.34;5075671;28;20025;-84
2021/03/16 10:05:43;;;;;;;21.80;17.17;;;;;;;14.04;95.61;101779.25;5095930;28;20012;-85
2021/03/16 10:08:08;;;;;;;28.15;16.92;;;;;;;14.02;93.96;101771.47;5068532;28;20009;-88
2021/03/16 10:10:39;;;;;;;21.00;15.07;;;;;;;14.28;92.06;101767.22;5058505;28;20025;-85
2021/03/16 10:13:08;;;;;;;22.45;14.98;;;;;;;14.08;93.85;101767.59;5065317;28;20679;-88
2021/03/16 10:15:39;;;;;;;23.83;14.60;;;;;;;15.92;88.90;101765.44;5086399;28;20491;-87
2021/03/16 10:18:09;;;;;;;21.95;13.70;;;;;;;16.41;83.81;101777.03;5099217;28;20035;-87
2021/03/16 10:20:38;;;;;;;13.95;11.60;;;;;;;15.24;86.44;101769.09;5097102;28;20029;-87
2021/03/16 10:23:06;;;;;;;15.60;10.82;;;;;;;15.04;86.58;101747.44;5068383;28;20031;-87
2021/03/16 10:25:32;;;;;;;14.60;11.55;;;;;;;14.53;87.03;101757.75;5092634;28;20025;-86
2021/03/16 10:28:06;;;;;;;16.08;11.10;;;;;;;14.73;87.44;101772.41;5082837;28;20470;-88
2021/03/16 10:30:33;;;;;;;12.52;9.98;;;;;;;15.08;85.90;101767.44;5078748;28;20027;-88
2021/03/16 10:32:59;;;;;;;14.77;10.88;;;;;;;15.84;82.91;101765.13;5070709;28;20025;-87
2021/03/16 10:35:25;;;;;;;16.58;10.77;;;;;;;16.71;77.78;101766.06;5070518;28;20501;-88
2021/03/16 10:37:53;;;;;;;15.40;10.52;;;;;;;17.79;75.83;101764.25;5053929;28;20367;-88
2021/03/16 10:40:18;;;;;;;13.07;9.68;;;;;;;18.58;71.22;101768.75;5054052;28;20027;-88
2021/03/16 10:42:44;;;;;;;15.80;9.48;;;;;;;19.15;67.82;101764.16;5056669;28;20020;-88
2021/03/16 10:45:10;;;;;;;14.55;8.07;;;;;;;19.50;64.92;101763.03;5054672;28;20368;-86
2021/03/16 10:47:35;;;;;;;12.65;8.25;;;;;;;19.31;65.92;101758.38;5053689;28;20025;-88
2021/03/16 10:50:01;;;;;;;11.13;7.68;;;;;;;20.29;61.21;101757.16;5054420;28;20063;-88
2021/03/16 10:52:26;;;;;;;10.25;7.15;;;;;;;20.34;62.07;101754.91;5044363;28;20045;-89
2021/03/16 10:54:51;;;;;;;10.43;7.68;;;;;;;20.84;58.73;101749.63;5061870;28;20078;-89
2021/03/16 10:57:17;;;;;;;11.32;6.75;;;;;;;21.80;55.84;101747.03;5054353;28;20434;-89
2021/03/16 10:59:44;;;;;;;11.05;7.68;;;;;;;20.95;59.09;101744.16;5054693;28;20104;-87
2021/03/16 11:02:09;;;;;;;12.98;6.90;;;;;;;22.38;55.84;101746.00;5054440;28;20435;-87
2021/03/16 11:04:35;;;;;;;9.18;6.20;;;;;;;23.45;51.37;101739.00;5053986;28;20071;-87
2021/03/16 11:07:01;;;;;;;7.55;5.13;;;;;;;22.17;53.93;101733.66;5043334;28;20119;-88
2021/03/16 11:09:26;;;;;;;9.55;5.57;;;;;;;22.34;54.48;101747.28;5035475;28;20029;-88
2021/03/16 11:11:52;;;;;;;7.72;5.07;;;;;;;22.37;55.24;101723.75;5035395;28;20028;-88
2021/03/16 11:14:17;;;;;;;6.32;5.15;;;;;;;21.98;54.25;101726.56;5041513;28;20678;-88
2021/03/16 11:16:43;;;;;;;5.85;4.70;;;;;;;21.68;56.58;101727.66;5057487;28;20021;-89